Terminal Aerodrome Forecast
Issued by NWS

Home | Current Version | Previous Version | Text Only | Print | Product List | Glossary Off
Versions: 1 2 3 4 5 6 7 8 9 10 11 12 13 14 15 16 17 18

431
FTUS42 KMHX 112335
TAFOAJ
TAF
KOAJ 112335Z 1200/1224 VRB03KT P6SM SKC
     FM121000 03005KT P6SM BKN100
     FM121400 04005KT 4SM -SN OVC020
     FM121700 07005KT 2SM -SN OVC010
     FM122100 02005KT 4SM -SNPL OVC005
      AMD LTD TO CLD VIS AND WIND=

USA.gov is the U.S. government's official web portal to all federal, state and local government web resources and services.